This is the latest recevied weather packets stored in our database for station/object EA5CLU-13. If no packets are shown the sender has not sent any weather packets the latest 10 day(s).
| Time | Temp. | Humidity | Pressure | Rain* | Wind** | Luminosity | Snow |
|---|---|---|---|---|---|---|---|
| 1787951080 | 20° C | - | 1022.2 hPa | 0 mm | - | - | - |
| 1787950779 | 19.44° C | - | 1022.3 hPa | 0 mm | - | - | - |
| 1787950180 | 19.44° C | - | 1022 hPa | 0 mm | - | - | - |
| 1787949879 | 19.44° C | - | 1022 hPa | 0 mm | - | - | - |
| 1787949579 | 0° C | - | - | 0 mm | - | - | - |
| 1787913554 | 22.22° C | - | 1023.1 hPa | 0 mm | - | - | - |
| 1787913254 | 22.22° C | - | 1023.1 hPa | 0 mm | - | - | - |
| 1787912954 | 22.22° C | - | 1023.1 hPa | 0 mm | - | - | - |
| 1787912353 | 22.22° C | - | 1023.1 hPa | 0 mm | - | - | - |
| 1787912054 | 22.22° C | - | 1023.1 hPa | 0 mm | - | - | - |
| 1787911453 | 21.67° C | - | 1023.1 hPa | 0 mm | - | - | - |
| 1787911154 | 21.67° C | - | 1022.9 hPa | 0 mm | - | - | - |
| 1787910853 | 21.67° C | - | 1022.7 hPa | 0 mm | - | - | - |
| 1787910254 | 21.11° C | - | 1023.4 hPa | 0 mm | - | - | - |
| 1787909953 | 21.11° C | - | 1023.8 hPa | 0 mm | - | - | - |
| 1787909353 | 21.11° C | - | 1023.5 hPa | 0 mm | - | - | - |
| 1787909054 | 21.11° C | - | 1023.5 hPa | 0 mm | - | - | - |
| 1787908153 | 21.11° C | - | 1023.5 hPa | 0 mm | - | - | - |
| 1787907254 | 20.56° C | - | 1023.3 hPa | 0 mm | - | - | - |
| 1787906954 | 20° C | - | 1023.1 hPa | 0 mm | - | - | - |
| 1787906652 | 20.56° C | - | 1023.2 hPa | 0 mm | - | - | - |
| 1787906352 | 20.56° C | - | 1023.2 hPa | 0 mm | - | - | - |
| 1787906054 | 20.56° C | - | 1023.1 hPa | 0 mm | - | - | - |
| 1787905753 | 20° C | - | 1023.2 hPa | 0 mm | - | - | - |
| 1787905453 | 20° C | - | 1023 hPa | 0 mm | - | - | - |
* Rain latest hour (hover to see other rain measurements)
** Current wind speed in m/s (hover to see current wind gust speed)